Startpagina
METAR-TAF:

METAR-TAF

Vliegvelden :

Curaçao, Nederlandse Antillen

Curaçao International Airport

breedte: 12-12N, lengte: 068-58W, hoogte: 9 m

Actueel weer

Dit bericht is 1 uur en het 32 minuten geleden gemaakt, om 03:00 UTC
Wind 12 kt uit het oosten
Temperatuur 28°C
Vochtigheid 89%
Druk 1013 hPa
Zicht 10 km of meer
Weinig wolken op 1700 ft

METAR: TNCC 230300Z 10012KT 9999 FEW017 28/26 Q1013 NOSIG

Tijdstip: 00:32 (04:32 UTC)

Verwachting

Dit bericht is 6 uur en het 57 minuten geleden gemaakt, om 21:35 UTC
Verwachting geldig van 23 om 00 UTC tot 23 om 24 UTC
Wind 10 kt uit het oosten
Zicht 10 km of meer
Verspreide wolken op 1800 ft
Kans 30% :
Tijdelijke
van 23 om 06 UTC tot 23 om 16 UTC
Gebroken wolken op 1500 ft

TAF: TNCC 222135Z 2300/2324 09010KT 9999 SCT018 PROB30 TEMPO 2306/2316 BKN015

Waarnemingen en weersverwachtingen van meer dan 4000 vliegvelden (METAR en TAF).

De beschikbare stations zijn de gele en rode punten op de kaart.

Ga met uw muis naar het station om de naam te zien.

Klik dan om waarnemingen en weersverwachtingen te zien.

kaart wijzigen: klik op de groene knoppen met een zwart kruis om in te zoomen, op de groene knop met een streepje om uit te zoomen of op de groene pijlen voor aangrenzende kaarten.


METAR-TAF: